sensor_id;sensor_type;location;lat;lon;timestamp;P1;durP1;ratioP1;P2;durP2;ratioP2
12884;SDS011;6510;51.362;7.370;2023-05-16T00:01:26;0.00;;;0.00;;
12884;SDS011;6510;51.362;7.370;2023-05-16T00:03:54;0.00;;;0.00;;
12884;SDS011;6510;51.362;7.370;2023-05-16T00:06:20;0.00;;;0.00;;
12884;SDS011;6510;51.362;7.370;2023-05-16T00:08:47;0.00;;;0.00;;
12884;SDS011;6510;51.362;7.370;2023-05-16T00:11:13;0.00;;;0.00;;
12884;SDS011;6510;51.362;7.370;2023-05-16T00:13:40;0.00;;;0.00;;
12884;SDS011;6510;51.362;7.370;2023-05-16T00:16:06;0.00;;;0.00;;
12884;SDS011;6510;51.362;7.370;2023-05-16T00:18:33;0.00;;;0.00;;
12884;SDS011;6510;51.362;7.370;2023-05-16T00:21:01;0.00;;;0.00;;
12884;SDS011;6510;51.362;7.370;2023-05-16T00:23:27;0.00;;;0.00;;
12884;SDS011;6510;51.362;7.370;2023-05-16T00:25:53;0.00;;;0.00;;
12884;SDS011;6510;51.362;7.370;2023-05-16T00:28:18;0.00;;;0.00;;
12884;SDS011;6510;51.362;7.370;2023-05-16T00:30:44;0.00;;;0.00;;
12884;SDS011;6510;51.362;7.370;2023-05-16T00:33:09;0.00;;;0.00;;
12884;SDS011;6510;51.362;7.370;2023-05-16T00:35:35;0.00;;;0.00;;
12884;SDS011;6510;51.362;7.370;2023-05-16T00:38:01;0.00;;;0.00;;
12884;SDS011;6510;51.362;7.370;2023-05-16T00:40:26;0.00;;;0.00;;
12884;SDS011;6510;51.362;7.370;2023-05-16T00:42:52;0.00;;;0.00;;
12884;SDS011;6510;51.362;7.370;2023-05-16T00:45:17;0.00;;;0.00;;
12884;SDS011;6510;51.362;7.370;2023-05-16T00:47:43;0.00;;;0.00;;
12884;SDS011;6510;51.362;7.370;2023-05-16T00:50:09;0.00;;;0.00;;
12884;SDS011;6510;51.362;7.370;2023-05-16T00:52:35;0.00;;;0.00;;
12884;SDS011;6510;51.362;7.370;2023-05-16T00:55:01;0.00;;;0.00;;
12884;SDS011;6510;51.362;7.370;2023-05-16T00:57:27;0.00;;;0.00;;
12884;SDS011;6510;51.362;7.370;2023-05-16T00:59:53;0.00;;;0.00;;
12884;SDS011;6510;51.362;7.370;2023-05-16T01:02:19;0.00;;;0.00;;
12884;SDS011;6510;51.362;7.370;2023-05-16T01:04:45;0.00;;;0.00;;
12884;SDS011;6510;51.362;7.370;2023-05-16T01:07:12;0.00;;;0.00;;
12884;SDS011;6510;51.362;7.370;2023-05-16T01:09:38;0.00;;;0.00;;
12884;SDS011;6510;51.362;7.370;2023-05-16T01:14:41;0.00;;;0.00;;
12884;SDS011;6510;51.362;7.370;2023-05-16T01:17:12;0.00;;;0.00;;
12884;SDS011;6510;51.362;7.370;2023-05-16T01:20:03;0.00;;;0.00;;
12884;SDS011;6510;51.362;7.370;2023-05-16T01:25:20;0.00;;;0.00;;
12884;SDS011;6510;51.362;7.370;2023-05-16T01:27:58;0.00;;;0.00;;
12884;SDS011;6510;51.362;7.370;2023-05-16T01:30:31;0.00;;;0.00;;
12884;SDS011;6510;51.362;7.370;2023-05-16T01:33:05;0.00;;;0.00;;
12884;SDS011;6510;51.362;7.370;2023-05-16T01:35:31;0.00;;;0.00;;
12884;SDS011;6510;51.362;7.370;2023-05-16T01:40:35;0.00;;;0.00;;
12884;SDS011;6510;51.362;7.370;2023-05-16T01:43:16;0.00;;;0.00;;
12884;SDS011;6510;51.362;7.370;2023-05-16T01:45:54;0.00;;;0.00;;
12884;SDS011;6510;51.362;7.370;2023-05-16T01:48:29;0.00;;;0.00;;
12884;SDS011;6510;51.362;7.370;2023-05-16T01:50:59;0.00;;;0.00;;
12884;SDS011;6510;51.362;7.370;2023-05-16T01:53:28;0.00;;;0.00;;
12884;SDS011;6510;51.362;7.370;2023-05-16T01:56:00;0.00;;;0.00;;
12884;SDS011;6510;51.362;7.370;2023-05-16T01:58:29;0.00;;;0.00;;
12884;SDS011;6510;51.362;7.370;2023-05-16T02:01:01;0.00;;;0.00;;
12884;SDS011;6510;51.362;7.370;2023-05-16T02:03:29;0.00;;;0.00;;
12884;SDS011;6510;51.362;7.370;2023-05-16T02:05:55;0.00;;;0.00;;
12884;SDS011;6510;51.362;7.370;2023-05-16T02:08:21;0.00;;;0.00;;
12884;SDS011;6510;51.362;7.370;2023-05-16T02:10:47;0.00;;;0.00;;
12884;SDS011;6510;51.362;7.370;2023-05-16T02:13:13;0.00;;;0.00;;
12884;SDS011;6510;51.362;7.370;2023-05-16T02:15:39;0.00;;;0.00;;
12884;SDS011;6510;51.362;7.370;2023-05-16T02:18:04;0.00;;;0.00;;
12884;SDS011;6510;51.362;7.370;2023-05-16T02:20:30;0.00;;;0.00;;
12884;SDS011;6510;51.362;7.370;2023-05-16T02:22:56;0.00;;;0.00;;
12884;SDS011;6510;51.362;7.370;2023-05-16T02:25:23;0.00;;;0.00;;
12884;SDS011;6510;51.362;7.370;2023-05-16T02:27:48;0.00;;;0.00;;
12884;SDS011;6510;51.362;7.370;2023-05-16T02:30:14;0.00;;;0.00;;
12884;SDS011;6510;51.362;7.370;2023-05-16T02:32:39;0.00;;;0.00;;
12884;SDS011;6510;51.362;7.370;2023-05-16T02:35:08;0.00;;;0.00;;
12884;SDS011;6510;51.362;7.370;2023-05-16T02:37:34;0.00;;;0.00;;
12884;SDS011;6510;51.362;7.370;2023-05-16T02:40:00;0.00;;;0.00;;
12884;SDS011;6510;51.362;7.370;2023-05-16T02:42:27;0.00;;;0.00;;
12884;SDS011;6510;51.362;7.370;2023-05-16T02:44:53;0.00;;;0.00;;
12884;SDS011;6510;51.362;7.370;2023-05-16T02:47:19;0.00;;;0.00;;
12884;SDS011;6510;51.362;7.370;2023-05-16T02:49:44;0.00;;;0.00;;
12884;SDS011;6510;51.362;7.370;2023-05-16T02:52:10;0.00;;;0.00;;
12884;SDS011;6510;51.362;7.370;2023-05-16T02:54:37;0.00;;;0.00;;
12884;SDS011;6510;51.362;7.370;2023-05-16T02:57:02;0.00;;;0.00;;
12884;SDS011;6510;51.362;7.370;2023-05-16T02:59:28;0.00;;;0.00;;
12884;SDS011;6510;51.362;7.370;2023-05-16T03:01:54;0.00;;;0.00;;
12884;SDS011;6510;51.362;7.370;2023-05-16T03:04:20;0.00;;;0.00;;
12884;SDS011;6510;51.362;7.370;2023-05-16T03:06:46;0.00;;;0.00;;
12884;SDS011;6510;51.362;7.370;2023-05-16T03:09:11;0.00;;;0.00;;
12884;SDS011;6510;51.362;7.370;2023-05-16T03:11:37;0.00;;;0.00;;
12884;SDS011;6510;51.362;7.370;2023-05-16T03:14:03;0.00;;;0.00;;
12884;SDS011;6510;51.362;7.370;2023-05-16T03:16:29;0.00;;;0.00;;
12884;SDS011;6510;51.362;7.370;2023-05-16T03:18:55;0.00;;;0.00;;
12884;SDS011;6510;51.362;7.370;2023-05-16T03:21:21;0.00;;;0.00;;
12884;SDS011;6510;51.362;7.370;2023-05-16T03:23:46;0.00;;;0.00;;
12884;SDS011;6510;51.362;7.370;2023-05-16T03:26:12;0.00;;;0.00;;
12884;SDS011;6510;51.362;7.370;2023-05-16T03:28:37;0.00;;;0.00;;
12884;SDS011;6510;51.362;7.370;2023-05-16T03:31:03;0.00;;;0.00;;
12884;SDS011;6510;51.362;7.370;2023-05-16T03:33:29;0.00;;;0.00;;
12884;SDS011;6510;51.362;7.370;2023-05-16T03:35:54;0.00;;;0.00;;
12884;SDS011;6510;51.362;7.370;2023-05-16T03:38:20;0.00;;;0.00;;
12884;SDS011;6510;51.362;7.370;2023-05-16T03:40:46;0.00;;;0.00;;
12884;SDS011;6510;51.362;7.370;2023-05-16T03:43:11;0.00;;;0.00;;
12884;SDS011;6510;51.362;7.370;2023-05-16T03:45:37;0.00;;;0.00;;
12884;SDS011;6510;51.362;7.370;2023-05-16T03:48:03;0.00;;;0.00;;
12884;SDS011;6510;51.362;7.370;2023-05-16T03:50:28;0.00;;;0.00;;
12884;SDS011;6510;51.362;7.370;2023-05-16T03:52:54;0.00;;;0.00;;
12884;SDS011;6510;51.362;7.370;2023-05-16T03:55:20;0.00;;;0.00;;
12884;SDS011;6510;51.362;7.370;2023-05-16T03:57:46;0.00;;;0.00;;
12884;SDS011;6510;51.362;7.370;2023-05-16T04:00:13;0.00;;;0.00;;
12884;SDS011;6510;51.362;7.370;2023-05-16T04:02:40;0.00;;;0.00;;
12884;SDS011;6510;51.362;7.370;2023-05-16T04:05:09;0.00;;;0.00;;
12884;SDS011;6510;51.362;7.370;2023-05-16T04:07:35;0.00;;;0.00;;
12884;SDS011;6510;51.362;7.370;2023-05-16T04:10:02;0.00;;;0.00;;
12884;SDS011;6510;51.362;7.370;2023-05-16T04:12:28;0.00;;;0.00;;
12884;SDS011;6510;51.362;7.370;2023-05-16T04:14:54;0.00;;;0.00;;
12884;SDS011;6510;51.362;7.370;2023-05-16T04:17:19;0.00;;;0.00;;
12884;SDS011;6510;51.362;7.370;2023-05-16T04:19:45;0.00;;;0.00;;
12884;SDS011;6510;51.362;7.370;2023-05-16T04:22:11;0.00;;;0.00;;
12884;SDS011;6510;51.362;7.370;2023-05-16T04:24:36;0.00;;;0.00;;
12884;SDS011;6510;51.362;7.370;2023-05-16T04:27:02;0.00;;;0.00;;
12884;SDS011;6510;51.362;7.370;2023-05-16T04:29:28;0.00;;;0.00;;
12884;SDS011;6510;51.362;7.370;2023-05-16T04:31:55;0.00;;;0.00;;
12884;SDS011;6510;51.362;7.370;2023-05-16T04:34:23;0.00;;;0.00;;
12884;SDS011;6510;51.362;7.370;2023-05-16T04:36:52;0.00;;;0.00;;
12884;SDS011;6510;51.362;7.370;2023-05-16T04:39:18;0.00;;;0.00;;
12884;SDS011;6510;51.362;7.370;2023-05-16T04:41:46;0.00;;;0.00;;
12884;SDS011;6510;51.362;7.370;2023-05-16T04:44:11;0.00;;;0.00;;
12884;SDS011;6510;51.362;7.370;2023-05-16T04:46:37;0.00;;;0.00;;
12884;SDS011;6510;51.362;7.370;2023-05-16T04:49:03;0.00;;;0.00;;
12884;SDS011;6510;51.362;7.370;2023-05-16T04:51:29;0.00;;;0.00;;
12884;SDS011;6510;51.362;7.370;2023-05-16T04:53:56;0.00;;;0.00;;
12884;SDS011;6510;51.362;7.370;2023-05-16T04:56:22;0.00;;;0.00;;
12884;SDS011;6510;51.362;7.370;2023-05-16T04:58:47;0.00;;;0.00;;
12884;SDS011;6510;51.362;7.370;2023-05-16T05:01:13;0.00;;;0.00;;
12884;SDS011;6510;51.362;7.370;2023-05-16T05:03:39;0.00;;;0.00;;
12884;SDS011;6510;51.362;7.370;2023-05-16T05:06:04;0.00;;;0.00;;
12884;SDS011;6510;51.362;7.370;2023-05-16T05:08:30;0.00;;;0.00;;
12884;SDS011;6510;51.362;7.370;2023-05-16T05:10:56;0.00;;;0.00;;
12884;SDS011;6510;51.362;7.370;2023-05-16T05:13:22;0.00;;;0.00;;
12884;SDS011;6510;51.362;7.370;2023-05-16T05:15:48;0.00;;;0.00;;
12884;SDS011;6510;51.362;7.370;2023-05-16T05:18:16;0.00;;;0.00;;
12884;SDS011;6510;51.362;7.370;2023-05-16T05:20:41;0.00;;;0.00;;
12884;SDS011;6510;51.362;7.370;2023-05-16T05:23:07;0.00;;;0.00;;
12884;SDS011;6510;51.362;7.370;2023-05-16T05:25:34;0.00;;;0.00;;
12884;SDS011;6510;51.362;7.370;2023-05-16T05:28:00;0.00;;;0.00;;
12884;SDS011;6510;51.362;7.370;2023-05-16T05:30:26;0.00;;;0.00;;
12884;SDS011;6510;51.362;7.370;2023-05-16T05:32:52;0.00;;;0.00;;
12884;SDS011;6510;51.362;7.370;2023-05-16T05:35:18;0.00;;;0.00;;
12884;SDS011;6510;51.362;7.370;2023-05-16T05:37:44;0.00;;;0.00;;
12884;SDS011;6510;51.362;7.370;2023-05-16T05:40:10;0.00;;;0.00;;
12884;SDS011;6510;51.362;7.370;2023-05-16T05:42:45;0.00;;;0.00;;
12884;SDS011;6510;51.362;7.370;2023-05-16T05:45:12;0.00;;;0.00;;
12884;SDS011;6510;51.362;7.370;2023-05-16T05:47:37;0.00;;;0.00;;
12884;SDS011;6510;51.362;7.370;2023-05-16T05:50:03;0.00;;;0.00;;
12884;SDS011;6510;51.362;7.370;2023-05-16T05:52:29;0.00;;;0.00;;
12884;SDS011;6510;51.362;7.370;2023-05-16T05:54:55;0.00;;;0.00;;
12884;SDS011;6510;51.362;7.370;2023-05-16T05:57:23;0.00;;;0.00;;
12884;SDS011;6510;51.362;7.370;2023-05-16T05:59:48;0.00;;;0.00;;
12884;SDS011;6510;51.362;7.370;2023-05-16T06:02:14;0.00;;;0.00;;
12884;SDS011;6510;51.362;7.370;2023-05-16T06:04:40;0.10;;;0.10;;
12884;SDS011;6510;51.362;7.370;2023-05-16T06:07:06;0.00;;;0.00;;
12884;SDS011;6510;51.362;7.370;2023-05-16T06:09:32;0.00;;;0.00;;
12884;SDS011;6510;51.362;7.370;2023-05-16T06:11:57;0.00;;;0.00;;
12884;SDS011;6510;51.362;7.370;2023-05-16T06:14:23;0.10;;;0.10;;
12884;SDS011;6510;51.362;7.370;2023-05-16T06:16:49;0.00;;;0.00;;
12884;SDS011;6510;51.362;7.370;2023-05-16T06:19:15;0.10;;;0.10;;
12884;SDS011;6510;51.362;7.370;2023-05-16T06:21:41;0.00;;;0.00;;
12884;SDS011;6510;51.362;7.370;2023-05-16T06:24:07;0.10;;;0.10;;
12884;SDS011;6510;51.362;7.370;2023-05-16T06:26:34;0.10;;;0.10;;
12884;SDS011;6510;51.362;7.370;2023-05-16T06:29:00;0.10;;;0.10;;
12884;SDS011;6510;51.362;7.370;2023-05-16T06:31:26;0.10;;;0.10;;
12884;SDS011;6510;51.362;7.370;2023-05-16T06:33:52;0.00;;;0.00;;
12884;SDS011;6510;51.362;7.370;2023-05-16T06:36:18;0.00;;;0.00;;
12884;SDS011;6510;51.362;7.370;2023-05-16T06:38:43;0.10;;;0.10;;
12884;SDS011;6510;51.362;7.370;2023-05-16T06:41:09;0.00;;;0.00;;
12884;SDS011;6510;51.362;7.370;2023-05-16T06:43:35;0.10;;;0.10;;
12884;SDS011;6510;51.362;7.370;2023-05-16T06:46:00;0.00;;;0.00;;
12884;SDS011;6510;51.362;7.370;2023-05-16T06:48:27;0.03;;;0.03;;
12884;SDS011;6510;51.362;7.370;2023-05-16T06:50:53;0.10;;;0.10;;
12884;SDS011;6510;51.362;7.370;2023-05-16T06:53:19;0.00;;;0.00;;
12884;SDS011;6510;51.362;7.370;2023-05-16T06:55:45;0.10;;;0.10;;
12884;SDS011;6510;51.362;7.370;2023-05-16T06:58:11;0.00;;;0.00;;
12884;SDS011;6510;51.362;7.370;2023-05-16T07:00:37;0.10;;;0.10;;
12884;SDS011;6510;51.362;7.370;2023-05-16T07:03:03;0.10;;;0.10;;
12884;SDS011;6510;51.362;7.370;2023-05-16T07:05:28;0.00;;;0.00;;
12884;SDS011;6510;51.362;7.370;2023-05-16T07:07:54;0.10;;;0.10;;
12884;SDS011;6510;51.362;7.370;2023-05-16T07:10:21;0.10;;;0.10;;
12884;SDS011;6510;51.362;7.370;2023-05-16T07:12:47;0.00;;;0.00;;
12884;SDS011;6510;51.362;7.370;2023-05-16T07:15:12;0.10;;;0.10;;
12884;SDS011;6510;51.362;7.370;2023-05-16T07:17:38;0.10;;;0.10;;
12884;SDS011;6510;51.362;7.370;2023-05-16T07:20:04;0.10;;;0.10;;
12884;SDS011;6510;51.362;7.370;2023-05-16T07:22:32;0.10;;;0.10;;
12884;SDS011;6510;51.362;7.370;2023-05-16T07:24:57;0.10;;;0.10;;
12884;SDS011;6510;51.362;7.370;2023-05-16T07:27:25;0.10;;;0.10;;
12884;SDS011;6510;51.362;7.370;2023-05-16T07:29:51;0.10;;;0.10;;
12884;SDS011;6510;51.362;7.370;2023-05-16T07:32:17;0.10;;;0.10;;
12884;SDS011;6510;51.362;7.370;2023-05-16T07:34:43;0.10;;;0.10;;
12884;SDS011;6510;51.362;7.370;2023-05-16T07:37:08;0.10;;;0.10;;
12884;SDS011;6510;51.362;7.370;2023-05-16T07:39:37;0.00;;;0.00;;
12884;SDS011;6510;51.362;7.370;2023-05-16T07:42:03;0.10;;;0.10;;
12884;SDS011;6510;51.362;7.370;2023-05-16T07:44:30;0.10;;;0.10;;
12884;SDS011;6510;51.362;7.370;2023-05-16T07:46:58;0.10;;;0.10;;
12884;SDS011;6510;51.362;7.370;2023-05-16T07:49:24;0.17;;;0.17;;
12884;SDS011;6510;51.362;7.370;2023-05-16T07:51:50;0.13;;;0.13;;
12884;SDS011;6510;51.362;7.370;2023-05-16T07:54:15;0.20;;;0.20;;
12884;SDS011;6510;51.362;7.370;2023-05-16T07:56:41;0.25;;;0.25;;
12884;SDS011;6510;51.362;7.370;2023-05-16T07:59:07;0.20;;;0.20;;
12884;SDS011;6510;51.362;7.370;2023-05-16T08:01:33;0.15;;;0.15;;
12884;SDS011;6510;51.362;7.370;2023-05-16T08:03:58;0.10;;;0.10;;
12884;SDS011;6510;51.362;7.370;2023-05-16T08:06:24;0.20;;;0.20;;
12884;SDS011;6510;51.362;7.370;2023-05-16T08:08:50;0.20;;;0.20;;
12884;SDS011;6510;51.362;7.370;2023-05-16T08:11:15;0.10;;;0.10;;
12884;SDS011;6510;51.362;7.370;2023-05-16T08:13:41;0.20;;;0.20;;
12884;SDS011;6510;51.362;7.370;2023-05-16T08:16:08;0.20;;;0.20;;
12884;SDS011;6510;51.362;7.370;2023-05-16T08:18:34;0.20;;;0.20;;
12884;SDS011;6510;51.362;7.370;2023-05-16T08:21:00;0.15;;;0.15;;
12884;SDS011;6510;51.362;7.370;2023-05-16T08:23:25;0.28;;;0.28;;
12884;SDS011;6510;51.362;7.370;2023-05-16T08:25:51;0.10;;;0.10;;
12884;SDS011;6510;51.362;7.370;2023-05-16T08:28:18;0.17;;;0.17;;
12884;SDS011;6510;51.362;7.370;2023-05-16T08:30:44;0.20;;;0.20;;
12884;SDS011;6510;51.362;7.370;2023-05-16T08:33:09;0.20;;;0.20;;
12884;SDS011;6510;51.362;7.370;2023-05-16T08:35:35;0.10;;;0.10;;
12884;SDS011;6510;51.362;7.370;2023-05-16T08:38:01;0.20;;;0.20;;
12884;SDS011;6510;51.362;7.370;2023-05-16T08:40:29;0.10;;;0.10;;
12884;SDS011;6510;51.362;7.370;2023-05-16T08:42:55;0.10;;;0.10;;
12884;SDS011;6510;51.362;7.370;2023-05-16T08:45:21;0.20;;;0.20;;
12884;SDS011;6510;51.362;7.370;2023-05-16T08:47:48;0.10;;;0.10;;
12884;SDS011;6510;51.362;7.370;2023-05-16T08:50:15;0.20;;;0.20;;
12884;SDS011;6510;51.362;7.370;2023-05-16T08:52:42;0.20;;;0.20;;
12884;SDS011;6510;51.362;7.370;2023-05-16T08:55:09;0.10;;;0.10;;
12884;SDS011;6510;51.362;7.370;2023-05-16T08:57:35;0.10;;;0.10;;
12884;SDS011;6510;51.362;7.370;2023-05-16T09:00:02;0.20;;;0.20;;
12884;SDS011;6510;51.362;7.370;2023-05-16T09:02:35;0.10;;;0.10;;
12884;SDS011;6510;51.362;7.370;2023-05-16T09:05:03;0.20;;;0.20;;
12884;SDS011;6510;51.362;7.370;2023-05-16T09:07:29;0.20;;;0.20;;
12884;SDS011;6510;51.362;7.370;2023-05-16T09:09:55;0.20;;;0.20;;
12884;SDS011;6510;51.362;7.370;2023-05-16T09:12:21;0.30;;;0.30;;
12884;SDS011;6510;51.362;7.370;2023-05-16T09:14:46;0.20;;;0.20;;
12884;SDS011;6510;51.362;7.370;2023-05-16T09:17:12;0.10;;;0.10;;
12884;SDS011;6510;51.362;7.370;2023-05-16T09:19:40;0.10;;;0.10;;
12884;SDS011;6510;51.362;7.370;2023-05-16T09:22:10;0.10;;;0.10;;
12884;SDS011;6510;51.362;7.370;2023-05-16T09:24:41;0.10;;;0.10;;
12884;SDS011;6510;51.362;7.370;2023-05-16T09:27:12;0.10;;;0.10;;
12884;SDS011;6510;51.362;7.370;2023-05-16T09:29:41;0.00;;;0.00;;
12884;SDS011;6510;51.362;7.370;2023-05-16T09:32:14;0.10;;;0.10;;
12884;SDS011;6510;51.362;7.370;2023-05-16T09:34:47;0.10;;;0.10;;
12884;SDS011;6510;51.362;7.370;2023-05-16T09:37:15;0.10;;;0.10;;
12884;SDS011;6510;51.362;7.370;2023-05-16T09:39:46;0.10;;;0.10;;
12884;SDS011;6510;51.362;7.370;2023-05-16T09:42:13;0.10;;;0.10;;
12884;SDS011;6510;51.362;7.370;2023-05-16T09:44:40;0.10;;;0.10;;
12884;SDS011;6510;51.362;7.370;2023-05-16T09:47:06;0.10;;;0.10;;
12884;SDS011;6510;51.362;7.370;2023-05-16T09:49:32;0.17;;;0.17;;
12884;SDS011;6510;51.362;7.370;2023-05-16T09:52:01;0.20;;;0.20;;
12884;SDS011;6510;51.362;7.370;2023-05-16T09:54:31;0.20;;;0.20;;
12884;SDS011;6510;51.362;7.370;2023-05-16T09:56:58;0.20;;;0.20;;
12884;SDS011;6510;51.362;7.370;2023-05-16T09:59:24;0.30;;;0.30;;
12884;SDS011;6510;51.362;7.370;2023-05-16T10:01:52;0.20;;;0.20;;
12884;SDS011;6510;51.362;7.370;2023-05-16T10:04:18;0.30;;;0.30;;
12884;SDS011;6510;51.362;7.370;2023-05-16T10:06:44;0.30;;;0.30;;
12884;SDS011;6510;51.362;7.370;2023-05-16T10:09:11;0.20;;;0.20;;
12884;SDS011;6510;51.362;7.370;2023-05-16T10:11:38;0.17;;;0.17;;
12884;SDS011;6510;51.362;7.370;2023-05-16T10:14:08;0.10;;;0.10;;
12884;SDS011;6510;51.362;7.370;2023-05-16T10:16:35;0.10;;;0.10;;
12884;SDS011;6510;51.362;7.370;2023-05-16T10:19:01;0.10;;;0.10;;
12884;SDS011;6510;51.362;7.370;2023-05-16T10:21:29;0.10;;;0.10;;
12884;SDS011;6510;51.362;7.370;2023-05-16T10:23:57;0.10;;;0.10;;
12884;SDS011;6510;51.362;7.370;2023-05-16T10:26:27;0.10;;;0.10;;
12884;SDS011;6510;51.362;7.370;2023-05-16T10:28:54;0.20;;;0.20;;
12884;SDS011;6510;51.362;7.370;2023-05-16T10:31:20;0.20;;;0.20;;
12884;SDS011;6510;51.362;7.370;2023-05-16T10:33:46;0.10;;;0.10;;
12884;SDS011;6510;51.362;7.370;2023-05-16T10:36:12;0.20;;;0.20;;
12884;SDS011;6510;51.362;7.370;2023-05-16T10:38:39;0.10;;;0.10;;
12884;SDS011;6510;51.362;7.370;2023-05-16T10:41:05;0.20;;;0.20;;
12884;SDS011;6510;51.362;7.370;2023-05-16T10:43:32;0.10;;;0.10;;
12884;SDS011;6510;51.362;7.370;2023-05-16T10:46:02;0.10;;;0.10;;
12884;SDS011;6510;51.362;7.370;2023-05-16T10:48:30;0.20;;;0.20;;
12884;SDS011;6510;51.362;7.370;2023-05-16T10:50:56;0.10;;;0.10;;
12884;SDS011;6510;51.362;7.370;2023-05-16T10:53:28;0.10;;;0.10;;
12884;SDS011;6510;51.362;7.370;2023-05-16T11:01:22;0.20;;;0.20;;
12884;SDS011;6510;51.362;7.370;2023-05-16T11:06:25;0.20;;;0.20;;
12884;SDS011;6510;51.362;7.370;2023-05-16T11:14:07;0.20;;;0.20;;
12884;SDS011;6510;51.362;7.370;2023-05-16T11:16:34;0.10;;;0.10;;
12884;SDS011;6510;51.362;7.370;2023-05-16T11:19:06;0.10;;;0.10;;
12884;SDS011;6510;51.362;7.370;2023-05-16T11:22:03;0.10;;;0.10;;
12884;SDS011;6510;51.362;7.370;2023-05-16T11:24:31;0.10;;;0.10;;
12884;SDS011;6510;51.362;7.370;2023-05-16T11:26:58;0.20;;;0.20;;
12884;SDS011;6510;51.362;7.370;2023-05-16T11:29:27;0.10;;;0.10;;
12884;SDS011;6510;51.362;7.370;2023-05-16T11:31:57;0.13;;;0.13;;
12884;SDS011;6510;51.362;7.370;2023-05-16T11:34:23;0.10;;;0.10;;
12884;SDS011;6510;51.362;7.370;2023-05-16T11:36:49;0.20;;;0.20;;
12884;SDS011;6510;51.362;7.370;2023-05-16T11:39:15;0.15;;;0.15;;
12884;SDS011;6510;51.362;7.370;2023-05-16T11:41:40;0.20;;;0.20;;
12884;SDS011;6510;51.362;7.370;2023-05-16T11:44:06;0.20;;;0.20;;
12884;SDS011;6510;51.362;7.370;2023-05-16T11:46:37;0.20;;;0.20;;
12884;SDS011;6510;51.362;7.370;2023-05-16T11:49:08;0.20;;;0.20;;
12884;SDS011;6510;51.362;7.370;2023-05-16T11:51:37;0.20;;;0.20;;
12884;SDS011;6510;51.362;7.370;2023-05-16T11:54:03;0.20;;;0.20;;
12884;SDS011;6510;51.362;7.370;2023-05-16T11:56:29;0.20;;;0.20;;
12884;SDS011;6510;51.362;7.370;2023-05-16T11:58:56;0.28;;;0.28;;
12884;SDS011;6510;51.362;7.370;2023-05-16T12:01:24;0.17;;;0.17;;
12884;SDS011;6510;51.362;7.370;2023-05-16T12:03:54;0.10;;;0.10;;
12884;SDS011;6510;51.362;7.370;2023-05-16T12:06:21;0.10;;;0.10;;
12884;SDS011;6510;51.362;7.370;2023-05-16T12:08:50;0.10;;;0.10;;
12884;SDS011;6510;51.362;7.370;2023-05-16T12:11:16;0.10;;;0.10;;
12884;SDS011;6510;51.362;7.370;2023-05-16T12:13:42;0.20;;;0.20;;
12884;SDS011;6510;51.362;7.370;2023-05-16T12:16:08;0.10;;;0.10;;
12884;SDS011;6510;51.362;7.370;2023-05-16T12:18:36;0.10;;;0.10;;
12884;SDS011;6510;51.362;7.370;2023-05-16T12:21:03;0.10;;;0.10;;
12884;SDS011;6510;51.362;7.370;2023-05-16T12:23:31;0.10;;;0.10;;
12884;SDS011;6510;51.362;7.370;2023-05-16T12:25:57;0.13;;;0.13;;
12884;SDS011;6510;51.362;7.370;2023-05-16T12:28:25;0.10;;;0.10;;
12884;SDS011;6510;51.362;7.370;2023-05-16T12:30:58;0.20;;;0.20;;
12884;SDS011;6510;51.362;7.370;2023-05-16T12:33:23;0.20;;;0.20;;
12884;SDS011;6510;51.362;7.370;2023-05-16T12:35:49;0.20;;;0.20;;
12884;SDS011;6510;51.362;7.370;2023-05-16T12:38:17;0.20;;;0.20;;
12884;SDS011;6510;51.362;7.370;2023-05-16T12:40:44;0.13;;;0.13;;
12884;SDS011;6510;51.362;7.370;2023-05-16T12:45:48;0.20;;;0.20;;
12884;SDS011;6510;51.362;7.370;2023-05-16T12:48:18;0.10;;;0.10;;
12884;SDS011;6510;51.362;7.370;2023-05-16T12:50:44;0.13;;;0.13;;
12884;SDS011;6510;51.362;7.370;2023-05-16T12:53:15;0.10;;;0.10;;
12884;SDS011;6510;51.362;7.370;2023-05-16T12:55:42;0.10;;;0.10;;
12884;SDS011;6510;51.362;7.370;2023-05-16T12:58:08;0.10;;;0.10;;
12884;SDS011;6510;51.362;7.370;2023-05-16T13:00:35;0.10;;;0.10;;
12884;SDS011;6510;51.362;7.370;2023-05-16T13:03:01;0.00;;;0.00;;
12884;SDS011;6510;51.362;7.370;2023-05-16T13:05:27;0.10;;;0.10;;
12884;SDS011;6510;51.362;7.370;2023-05-16T13:07:53;0.10;;;0.10;;
12884;SDS011;6510;51.362;7.370;2023-05-16T13:10:19;0.00;;;0.00;;
12884;SDS011;6510;51.362;7.370;2023-05-16T13:12:45;0.10;;;0.10;;
12884;SDS011;6510;51.362;7.370;2023-05-16T13:15:11;0.10;;;0.10;;
12884;SDS011;6510;51.362;7.370;2023-05-16T13:17:37;0.10;;;0.10;;
12884;SDS011;6510;51.362;7.370;2023-05-16T13:20:04;0.10;;;0.10;;
12884;SDS011;6510;51.362;7.370;2023-05-16T13:22:37;0.00;;;0.00;;
12884;SDS011;6510;51.362;7.370;2023-05-16T13:25:04;0.10;;;0.10;;
12884;SDS011;6510;51.362;7.370;2023-05-16T13:27:30;0.10;;;0.10;;
12884;SDS011;6510;51.362;7.370;2023-05-16T13:29:56;0.10;;;0.10;;
12884;SDS011;6510;51.362;7.370;2023-05-16T13:32:22;0.10;;;0.10;;
12884;SDS011;6510;51.362;7.370;2023-05-16T13:34:49;0.10;;;0.10;;
12884;SDS011;6510;51.362;7.370;2023-05-16T13:37:15;0.10;;;0.10;;
12884;SDS011;6510;51.362;7.370;2023-05-16T13:39:41;0.10;;;0.10;;
12884;SDS011;6510;51.362;7.370;2023-05-16T13:42:06;0.10;;;0.10;;
12884;SDS011;6510;51.362;7.370;2023-05-16T13:44:32;0.10;;;0.10;;
12884;SDS011;6510;51.362;7.370;2023-05-16T13:46:58;0.03;;;0.03;;
12884;SDS011;6510;51.362;7.370;2023-05-16T13:49:23;0.00;;;0.00;;
12884;SDS011;6510;51.362;7.370;2023-05-16T13:51:49;0.10;;;0.10;;
12884;SDS011;6510;51.362;7.370;2023-05-16T13:54:16;0.10;;;0.10;;
12884;SDS011;6510;51.362;7.370;2023-05-16T13:56:42;0.00;;;0.00;;
12884;SDS011;6510;51.362;7.370;2023-05-16T13:59:10;0.00;;;0.00;;
12884;SDS011;6510;51.362;7.370;2023-05-16T14:01:36;0.10;;;0.10;;
12884;SDS011;6510;51.362;7.370;2023-05-16T14:04:02;0.10;;;0.10;;
12884;SDS011;6510;51.362;7.370;2023-05-16T14:06:28;0.00;;;0.00;;
12884;SDS011;6510;51.362;7.370;2023-05-16T14:08:53;0.10;;;0.10;;
12884;SDS011;6510;51.362;7.370;2023-05-16T14:11:19;0.10;;;0.10;;
12884;SDS011;6510;51.362;7.370;2023-05-16T14:13:50;0.00;;;0.00;;
12884;SDS011;6510;51.362;7.370;2023-05-16T14:16:16;0.10;;;0.10;;
12884;SDS011;6510;51.362;7.370;2023-05-16T14:18:42;0.10;;;0.10;;
12884;SDS011;6510;51.362;7.370;2023-05-16T14:21:07;0.10;;;0.10;;
12884;SDS011;6510;51.362;7.370;2023-05-16T14:23:33;0.10;;;0.10;;
12884;SDS011;6510;51.362;7.370;2023-05-16T14:25:58;0.10;;;0.10;;
12884;SDS011;6510;51.362;7.370;2023-05-16T14:28:24;0.10;;;0.10;;
12884;SDS011;6510;51.362;7.370;2023-05-16T14:30:50;0.10;;;0.10;;
12884;SDS011;6510;51.362;7.370;2023-05-16T14:33:16;0.10;;;0.10;;
12884;SDS011;6510;51.362;7.370;2023-05-16T14:35:41;0.00;;;0.00;;
12884;SDS011;6510;51.362;7.370;2023-05-16T14:38:07;0.10;;;0.10;;
12884;SDS011;6510;51.362;7.370;2023-05-16T14:40:33;0.00;;;0.00;;
12884;SDS011;6510;51.362;7.370;2023-05-16T14:42:59;0.10;;;0.10;;
12884;SDS011;6510;51.362;7.370;2023-05-16T14:45:27;0.10;;;0.10;;
12884;SDS011;6510;51.362;7.370;2023-05-16T14:47:53;0.07;;;0.07;;
12884;SDS011;6510;51.362;7.370;2023-05-16T14:50:19;0.10;;;0.10;;
12884;SDS011;6510;51.362;7.370;2023-05-16T14:52:44;0.10;;;0.10;;
12884;SDS011;6510;51.362;7.370;2023-05-16T14:55:10;0.10;;;0.10;;
12884;SDS011;6510;51.362;7.370;2023-05-16T14:57:36;0.10;;;0.10;;
12884;SDS011;6510;51.362;7.370;2023-05-16T15:00:02;0.10;;;0.10;;
12884;SDS011;6510;51.362;7.370;2023-05-16T15:02:29;0.10;;;0.10;;
12884;SDS011;6510;51.362;7.370;2023-05-16T15:04:55;0.10;;;0.10;;
12884;SDS011;6510;51.362;7.370;2023-05-16T15:07:20;0.00;;;0.00;;
12884;SDS011;6510;51.362;7.370;2023-05-16T15:09:46;0.00;;;0.00;;
12884;SDS011;6510;51.362;7.370;2023-05-16T15:12:12;0.10;;;0.10;;
12884;SDS011;6510;51.362;7.370;2023-05-16T15:14:37;0.10;;;0.10;;
12884;SDS011;6510;51.362;7.370;2023-05-16T15:17:03;0.10;;;0.10;;
12884;SDS011;6510;51.362;7.370;2023-05-16T15:19:28;0.00;;;0.00;;
12884;SDS011;6510;51.362;7.370;2023-05-16T15:21:54;0.00;;;0.00;;